Time;durP1;ratioP1;P1;durP2;ratioP2;P2;SDS_P1;SDS_P2;PMS_P1;PMS_P2;Temp;Humidity;BMP_temperature;BMP_pressure;BME280_temperature;BME280_humidity;BME280_pressure;Samples;Min_cycle;Max_cycle;Signal;HPM_P1;HPM_P2
2021/06/16 00:01:36;;;;;;;2.05;1.95;;;;;;;18.04;62.43;100396.53;6252284;23;20035;-76
2021/06/16 00:04:04;;;;;;;2.38;1.83;;;;;;;17.95;62.97;100405.59;6250396;23;20035;-76
2021/06/16 00:06:29;;;;;;;2.85;2.75;;;;;;;17.89;63.23;100409.59;6225183;23;20007;-77
2021/06/16 00:08:55;;;;;;;2.38;2.28;;;;;;;17.86;63.11;100399.19;6225577;23;20004;-76
2021/06/16 00:11:21;;;;;;;2.72;2.55;;;;;;;17.81;63.53;100396.53;6253912;23;20375;-77
2021/06/16 00:13:46;;;;;;;3.35;3.05;;;;;;;17.77;63.81;100398.28;6196921;23;20005;-76
2021/06/16 00:16:12;;;;;;;2.75;2.65;;;;;;;17.71;64.19;100391.25;6253891;23;20008;-77
2021/06/16 00:18:37;;;;;;;3.00;2.90;;;;;;;17.70;64.21;100395.97;6221315;23;20057;-78
2021/06/16 00:21:03;;;;;;;2.63;2.53;;;;;;;17.64;64.17;100394.47;6251847;23;20008;-77
2021/06/16 00:23:28;;;;;;;3.38;3.00;;;;;;;17.61;63.96;100395.91;6226944;23;20335;-77
2021/06/16 00:25:53;;;;;;;2.20;2.10;;;;;;;17.58;64.03;100393.78;6224286;23;20012;-77
2021/06/16 00:28:19;;;;;;;2.13;2.03;;;;;;;17.56;64.04;100392.47;6255024;23;20014;-77
2021/06/16 00:30:45;;;;;;;1.42;1.33;;;;;;;17.51;63.85;100393.41;6195368;23;20095;-80
2021/06/16 00:33:10;;;;;;;1.42;1.33;;;;;;;17.51;63.88;100387.88;6231253;23;20036;-77
2021/06/16 00:35:35;;;;;;;1.08;1.08;;;;;;;17.51;63.85;100387.88;6253791;23;20454;-76
2021/06/16 00:38:01;;;;;;;1.80;1.70;;;;;;;17.51;63.79;100379.59;6229076;23;20111;-76
2021/06/16 00:40:29;;;;;;;2.25;2.15;;;;;;;17.50;63.71;100380.72;6222727;23;20008;-76
2021/06/16 00:43:00;;;;;;;2.40;2.30;;;;;;;17.41;63.72;100361.28;6228501;23;20004;-76
2021/06/16 00:45:28;;;;;;;1.35;1.30;;;;;;;17.50;63.85;100368.84;6229041;23;20446;-76
2021/06/16 00:47:56;;;;;;;2.92;2.78;;;;;;;17.48;64.06;100360.88;6248053;23;20086;-77
2021/06/16 00:50:28;;;;;;;2.60;2.50;;;;;;;17.46;63.64;100368.63;6254077;23;20087;-77
2021/06/16 00:52:53;;;;;;;2.50;2.30;;;;;;;17.41;63.62;100363.25;6229454;23;20087;-77
2021/06/16 00:55:19;;;;;;;2.97;2.38;;;;;;;17.36;63.78;100353.13;6255342;23;20399;-77
2021/06/16 00:57:45;;;;;;;2.03;1.92;;;;;;;17.37;63.53;100351.19;6230470;23;20015;-78
2021/06/16 01:00:14;;;;;;;1.63;1.63;;;;;;;17.28;64.03;100346.41;6201819;23;20020;-78
2021/06/16 01:02:47;;;;;;;1.45;1.35;;;;;;;17.20;63.42;100340.78;6258298;23;20004;-78
2021/06/16 01:05:14;;;;;;;0.80;0.80;;;;;;;17.15;63.27;100327.94;6257079;23;20003;-75
2021/06/16 01:07:42;;;;;;;0.98;0.98;;;;;;;17.13;63.42;100321.91;6253869;23;20024;-77
2021/06/16 01:10:31;;;;;;;0.47;0.47;;;;;;;17.12;62.92;100320.25;6257039;23;20010;-75
2021/06/16 01:13:20;;;;;;;0.30;0.30;;;;;;;17.13;63.21;100327.44;6226069;23;20008;-76
2021/06/16 01:15:56;;;;;;;0.68;0.68;;;;;;;17.14;63.25;100328.25;6228448;23;20008;-77
2021/06/16 01:18:23;;;;;;;0.68;0.68;;;;;;;16.93;63.04;100307.44;6257086;23;20124;-76
2021/06/16 01:21:01;;;;;;;2.00;1.90;;;;;;;17.01;63.48;100328.00;6229010;23;20008;-77
2021/06/16 01:24:18;;;;;;;2.40;2.30;;;;;;;16.86;63.74;100315.28;6226896;23;20004;-76
2021/06/16 01:26:48;;;;;;;2.38;2.28;;;;;;;16.57;64.29;100299.09;6108916;23;20032;-74
2021/06/16 01:33:17;;;;;;;5.53;5.05;;;;;;;16.54;65.27;100311.59;6107729;23;20006;-77
2021/06/16 01:35:57;;;;;;;3.60;3.33;;;;;;;16.42;65.44;100303.00;6255430;23;20004;-74
2021/06/16 01:38:35;;;;;;;;;;;;;;;;;;;;;
2021/06/16 01:41:12;;;;;;;;;;;;;;;;;;;;;
2021/06/16 01:43:40;;;;;;;3.45;3.33;;;;;;;16.11;65.80;100289.84;6254445;23;20031;-75
2021/06/16 01:46:07;;;;;;;3.35;3.15;;;;;;;16.21;65.93;100308.97;6251557;23;20435;-74
2021/06/16 01:48:41;;;;;;;2.15;1.95;;;;;;;16.16;65.68;100303.53;6251745;23;20007;-75
2021/06/16 01:51:08;;;;;;;2.85;2.75;;;;;;;16.12;66.25;100310.81;6254748;23;20015;-75
2021/06/16 01:53:36;;;;;;;4.93;4.53;;;;;;;16.05;66.64;100289.13;6254014;23;20003;-75
2021/06/16 01:56:02;;;;;;;3.80;3.60;;;;;;;16.05;66.16;100299.38;6254610;23;20813;-75
2021/06/16 01:58:28;;;;;;;4.03;3.83;;;;;;;16.04;66.34;100303.22;6252957;23;20015;-74
2021/06/16 02:00:55;;;;;;;3.55;3.33;;;;;;;15.97;66.79;100302.81;6253546;23;20024;-73
2021/06/16 02:03:21;;;;;;;2.88;2.67;;;;;;;15.93;66.72;100293.50;6201239;23;20450;-74
2021/06/16 02:05:46;;;;;;;3.80;3.60;;;;;;;15.91;66.89;100293.00;6227198;23;20008;-73
2021/06/16 02:08:25;;;;;;;3.38;3.28;;;;;;;15.90;66.72;100291.38;6252114;23;20011;-75
2021/06/16 02:10:52;;;;;;;3.83;3.63;;;;;;;15.86;67.26;100280.16;6227170;23;20504;-75
2021/06/16 02:13:27;;;;;;;3.45;3.35;;;;;;;15.80;66.95;100271.16;6248838;23;20019;-75
2021/06/16 02:16:06;;;;;;;5.25;4.70;;;;;;;15.74;66.67;100269.59;6227702;23;20023;-74
2021/06/16 02:18:43;;;;;;;5.10;4.70;;;;;;;15.69;67.64;100264.16;6253820;23;20031;-75
2021/06/16 02:21:09;;;;;;;6.22;5.93;;;;;;;15.66;67.90;100264.78;6227766;23;20065;-74
2021/06/16 02:23:35;;;;;;;4.75;4.35;;;;;;;15.61;67.68;100273.13;6253863;23;20016;-75
2021/06/16 02:26:01;;;;;;;4.55;4.35;;;;;;;15.58;67.50;100263.53;6229900;23;20004;-75
2021/06/16 02:28:26;;;;;;;2.60;2.50;;;;;;;15.58;67.60;100257.19;6249705;23;20012;-74
2021/06/16 02:30:52;;;;;;;3.03;2.92;;;;;;;15.58;67.75;100262.72;6249517;23;20008;-75
2021/06/16 02:33:18;;;;;;;6.55;6.07;;;;;;;15.54;67.86;100257.81;6255361;23;20016;-74
2021/06/16 02:35:43;;;;;;;7.28;6.78;;;;;;;15.47;68.37;100240.84;6251398;23;20011;-73
2021/06/16 02:38:12;;;;;;;7.20;6.70;;;;;;;15.48;68.82;100247.19;6228205;23;20008;-74
2021/06/16 02:40:40;;;;;;;9.30;8.43;;;;;;;15.44;69.21;100235.94;6251460;23;20023;-74
2021/06/16 02:43:07;;;;;;;5.15;4.82;;;;;;;15.43;68.73;100228.78;6251510;23;20427;-73
2021/06/16 02:46:00;;;;;;;6.85;6.47;;;;;;;15.40;68.73;100229.41;6248599;23;20426;-74
2021/06/16 02:48:26;;;;;;;6.90;6.60;;;;;;;15.28;69.52;100218.88;6234874;23;20004;-73
2021/06/16 02:50:54;;;;;;;6.70;6.10;;;;;;;15.23;69.98;100210.72;6225139;23;20367;-74
2021/06/16 02:53:22;;;;;;;7.47;6.75;;;;;;;15.22;69.41;100222.84;6254088;23;20008;-74
2021/06/16 02:55:52;;;;;;;6.57;6.18;;;;;;;15.17;69.67;100221.00;6251327;23;20000;-72
2021/06/16 02:58:19;;;;;;;8.55;7.75;;;;;;;15.15;70.25;100216.91;6252331;23;20000;-74
2021/06/16 03:00:47;;;;;;;8.32;7.80;;;;;;;15.08;70.50;100206.25;6247313;22;20072;-76
2021/06/16 03:03:14;;;;;;;8.75;8.05;;;;;;;15.03;70.69;100197.31;6224534;23;20015;-74
2021/06/16 03:05:40;;;;;;;8.07;7.45;;;;;;;14.94;71.17;100199.94;6221084;23;20012;-75
2021/06/16 03:08:07;;;;;;;7.80;7.05;;;;;;;14.91;71.22;100192.25;6225852;23;20060;-75
2021/06/16 03:10:34;;;;;;;8.57;7.78;;;;;;;14.85;71.46;100191.53;6223450;23;20039;-76
2021/06/16 03:13:04;;;;;;;6.22;5.93;;;;;;;14.78;71.31;100177.34;6194632;23;20017;-74
2021/06/16 03:15:30;;;;;;;7.03;6.72;;;;;;;14.78;71.63;100175.38;6234737;23;20004;-76
2021/06/16 03:17:57;;;;;;;5.78;5.38;;;;;;;14.72;71.48;100168.34;6234216;23;20018;-74
2021/06/16 03:20:25;;;;;;;7.85;7.20;;;;;;;14.68;71.58;100159.03;6235405;23;20040;-76
2021/06/16 03:22:56;;;;;;;5.93;5.63;;;;;;;14.67;71.48;100168.41;6239624;23;19999;-75
2021/06/16 03:25:22;;;;;;;6.05;5.63;;;;;;;14.62;71.70;100158.31;6238819;23;20011;-74
2021/06/16 03:27:50;;;;;;;5.20;4.80;;;;;;;14.63;71.76;100172.88;6233789;23;20019;-74
2021/06/16 03:30:18;;;;;;;5.07;4.72;;;;;;;14.55;71.78;100159.78;6228051;23;20031;-74
2021/06/16 03:32:44;;;;;;;6.38;5.88;;;;;;;14.54;71.47;100163.63;6224045;23;20016;-75
2021/06/16 03:35:10;;;;;;;4.30;4.00;;;;;;;14.52;71.18;100161.19;6221204;23;20007;-74
2021/06/16 03:37:38;;;;;;;5.30;5.05;;;;;;;14.49;72.18;100162.59;6225310;23;20008;-77
2021/06/16 03:40:06;;;;;;;6.20;5.70;;;;;;;14.52;72.29;100163.13;6225003;23;20013;-76
2021/06/16 03:42:36;;;;;;;6.53;6.13;;;;;;;14.52;71.74;100157.63;6223582;23;20008;-75
2021/06/16 03:45:07;;;;;;;7.03;6.53;;;;;;;14.54;71.52;100158.13;6223783;23;20146;-74
2021/06/16 03:47:35;;;;;;;3.83;3.58;;;;;;;14.57;72.19;100154.78;6223851;23;19997;-76
2021/06/16 03:50:03;;;;;;;2.97;2.63;;;;;;;14.62;71.35;100143.75;6225116;23;20083;-77
2021/06/16 03:52:30;;;;;;;2.65;2.55;;;;;;;14.56;71.19;100123.72;6220956;23;20005;-75
2021/06/16 03:54:57;;;;;;;2.60;2.50;;;;;;;14.73;70.90;100136.13;6225364;23;20004;-77
2021/06/16 03:57:23;;;;;;;1.98;1.88;;;;;;;14.76;70.61;100139.09;6222851;23;20060;-78
2021/06/16 03:59:49;;;;;;;5.50;3.40;;;;;;;14.84;70.64;100145.84;6226112;23;20111;-76
2021/06/16 04:02:19;;;;;;;4.40;4.20;;;;;;;14.86;70.89;100151.03;6227552;23;20017;-77
2021/06/16 04:04:44;;;;;;;4.38;4.07;;;;;;;14.88;70.73;100168.06;6219163;23;20411;-76
2021/06/16 04:07:14;;;;;;;3.85;3.50;;;;;;;14.90;71.49;100176.84;6227005;23;20072;-77
2021/06/16 04:09:41;;;;;;;4.30;4.05;;;;;;;14.91;70.79;100168.31;6225137;23;20005;-77
2021/06/16 04:12:09;;;;;;;4.57;4.28;;;;;;;14.94;71.35;100181.47;6221954;23;20461;-76
2021/06/16 04:14:35;;;;;;;8.90;8.07;;;;;;;14.92;71.56;100174.59;6221152;23;20540;-75
2021/06/16 04:17:01;;;;;;;5.85;5.55;;;;;;;14.94;71.32;100172.41;6223025;23;20011;-75
2021/06/16 04:19:26;;;;;;;6.63;5.97;;;;;;;14.93;71.11;100166.03;6225189;23;20008;-76
2021/06/16 04:21:52;;;;;;;4.88;4.57;;;;;;;14.97;71.66;100166.28;6218337;23;20019;-76
2021/06/16 04:24:17;;;;;;;4.63;4.43;;;;;;;14.93;71.18;100166.03;6225417;23;20092;-76
2021/06/16 04:26:43;;;;;;;4.97;4.68;;;;;;;14.90;71.26;100154.84;6225759;23;20036;-76
2021/06/16 04:29:08;;;;;;;4.40;4.10;;;;;;;14.91;71.27;100157.28;6221210;23;20004;-76
2021/06/16 04:31:35;;;;;;;4.70;4.30;;;;;;;14.93;70.93;100149.53;6227299;23;20005;-75
2021/06/16 04:34:00;;;;;;;4.40;4.20;;;;;;;14.87;71.42;100138.94;6221559;23;20063;-76
2021/06/16 04:36:26;;;;;;;3.50;3.30;;;;;;;14.86;71.32;100134.53;6225255;23;20008;-76
2021/06/16 04:38:51;;;;;;;4.15;2.33;;;;;;;14.81;71.27;100147.25;6223724;23;20013;-76
2021/06/16 04:41:17;;;;;;;2.90;2.80;;;;;;;14.75;71.86;100142.97;6227124;23;20088;-75
2021/06/16 04:43:42;;;;;;;4.20;4.00;;;;;;;14.73;72.20;100139.69;6222991;23;20008;-75
2021/06/16 04:46:08;;;;;;;3.30;3.20;;;;;;;14.73;71.77;100133.38;6224637;23;20083;-76
2021/06/16 04:48:33;;;;;;;1.98;1.88;;;;;;;14.73;71.38;100119.59;6226982;23;20035;-75
2021/06/16 04:50:58;;;;;;;1.48;1.38;;;;;;;14.76;71.28;100121.75;6224183;23;20293;-76
2021/06/16 04:53:24;;;;;;;1.73;1.67;;;;;;;14.76;71.57;100119.84;6226586;23;20123;-75
2021/06/16 04:55:51;;;;;;;1.38;1.33;;;;;;;14.81;71.19;100122.47;6225620;23;20066;-75
2021/06/16 04:58:16;;;;;;;1.60;1.50;;;;;;;14.92;71.09;100125.06;6229657;23;20056;-77
2021/06/16 05:00:43;;;;;;;1.20;1.20;;;;;;;14.99;70.86;100117.22;6247573;23;20055;-76
2021/06/16 05:03:08;;;;;;;2.10;2.00;;;;;;;15.10;71.00;100121.44;6230830;23;20008;-75
2021/06/16 05:05:34;;;;;;;1.17;1.17;;;;;;;15.15;71.18;100123.25;6255831;23;20087;-76
2021/06/16 05:07:59;;;;;;;0.85;0.85;;;;;;;15.01;71.13;100101.22;6257954;23;20008;-75
2021/06/16 05:10:25;;;;;;;1.75;1.65;;;;;;;15.09;70.83;100119.78;6204666;23;20061;-75
2021/06/16 05:12:50;;;;;;;1.80;1.70;;;;;;;15.08;70.68;100112.63;6231609;23;20466;-76
2021/06/16 05:15:17;;;;;;;1.90;1.80;;;;;;;15.22;71.26;100112.66;6205227;23;20015;-76
2021/06/16 05:17:42;;;;;;;1.75;1.65;;;;;;;15.38;70.16;100117.88;6229898;23;20032;-75
2021/06/16 05:20:11;;;;;;;1.80;1.70;;;;;;;15.53;70.69;100112.84;6227622;23;20046;-76
2021/06/16 05:22:38;;;;;;;1.50;1.40;;;;;;;15.69;69.79;100102.34;6253273;23;20008;-76
2021/06/16 05:25:06;;;;;;;1.55;1.45;;;;;;;15.87;69.89;100110.81;6205452;23;20000;-76
2021/06/16 05:27:38;;;;;;;1.50;1.40;;;;;;;15.95;69.60;100101.81;6228550;23;20520;-77
2021/06/16 05:30:08;;;;;;;2.38;1.90;;;;;;;15.96;69.52;100097.94;6256930;23;20000;-75
2021/06/16 05:32:36;;;;;;;2.15;2.00;;;;;;;16.17;68.96;100114.84;6256205;23;20004;-75
2021/06/16 05:35:02;;;;;;;2.25;2.15;;;;;;;16.26;69.23;100108.59;6252989;23;20038;-75
2021/06/16 05:38:27;;;;;;;;;;;;;;;;;;;;;
2021/06/16 05:41:55;;;;;;;;;;;;;;;;;;;;;
2021/06/16 05:44:40;;;;;;;3.05;1.85;;;;;;;16.36;68.68;100103.63;6222324;23;20004;-77
2021/06/16 05:47:39;;;;;;;;;;;;;;;;;;;;;
2021/06/16 05:50:08;;;;;;;2.08;1.98;;;;;;;16.43;68.82;100094.91;6252482;23;20027;-73
2021/06/16 05:52:33;;;;;;;2.13;2.03;;;;;;;16.40;68.69;100095.56;6223704;23;20091;-71
2021/06/16 05:54:59;;;;;;;1.08;0.98;;;;;;;16.39;68.79;100093.91;6228883;23;20004;-73
2021/06/16 05:57:24;;;;;;;0.90;0.90;;;;;;;16.46;68.55;100094.28;6226652;23;20050;-72
2021/06/16 05:59:49;;;;;;;1.98;1.88;;;;;;;16.55;68.33;100114.47;6197799;23;20209;-71
2021/06/16 06:02:15;;;;;;;2.03;1.92;;;;;;;16.45;68.84;100111.16;6225604;23;20012;-74
2021/06/16 06:04:41;;;;;;;2.60;2.50;;;;;;;16.45;69.19;100114.72;6202600;23;20134;-72
2021/06/16 06:07:07;;;;;;;3.83;3.53;;;;;;;16.52;68.69;100117.06;6178578;23;20075;-74
2021/06/16 06:09:32;;;;;;;7.63;6.95;;;;;;;16.58;68.24;100108.31;6212213;23;20012;-72
2021/06/16 06:11:58;;;;;;;5.95;3.80;;;;;;;16.55;67.83;100097.91;6269304;23;20004;-73
2021/06/16 06:14:24;;;;;;;4.85;4.47;;;;;;;16.62;67.24;100094.72;6231723;23;20000;-74
2021/06/16 06:16:50;;;;;;;3.90;3.58;;;;;;;16.54;67.16;100081.69;6178945;23;20434;-75
2021/06/16 06:19:16;;;;;;;3.85;3.65;;;;;;;16.60;67.24;100104.44;6203523;23;20311;-75
2021/06/16 06:21:41;;;;;;;3.80;3.58;;;;;;;16.63;67.65;100099.13;6255951;23;20075;-74
2021/06/16 06:24:07;;;;;;;3.50;3.28;;;;;;;16.69;67.30;100097.03;6204427;23;20004;-75
2021/06/16 06:26:38;;;;;;;5.00;4.70;;;;;;;16.72;67.27;100102.75;6231281;23;20004;-76
2021/06/16 06:29:04;;;;;;;4.35;4.15;;;;;;;16.75;67.11;100113.16;6258924;23;20822;-77
2021/06/16 06:31:33;;;;;;;6.50;5.95;;;;;;;16.83;66.80;100124.56;6259696;23;20000;-78
2021/06/16 06:33:58;;;;;;;4.90;4.57;;;;;;;16.84;67.10;100115.97;6225493;23;20028;-76
2021/06/16 06:36:24;;;;;;;6.63;5.93;;;;;;;16.83;66.49;100106.06;6224431;23;20320;-76
2021/06/16 06:38:52;;;;;;;6.35;5.85;;;;;;;16.76;66.79;100097.41;6251304;23;20697;-77
2021/06/16 06:41:18;;;;;;;7.78;5.90;;;;;;;16.83;67.19;100106.06;6251008;23;20004;-74
2021/06/16 06:43:44;;;;;;;5.38;4.85;;;;;;;16.83;66.80;100100.53;6250414;23;20059;-75
2021/06/16 06:46:09;;;;;;;3.90;3.63;;;;;;;16.83;67.05;100113.53;6220693;23;20075;-76
2021/06/16 06:48:35;;;;;;;6.35;5.75;;;;;;;16.78;67.10;100103.44;6219474;23;20027;-76
2021/06/16 06:51:00;;;;;;;6.85;6.35;;;;;;;16.81;66.88;100122.13;6218268;23;20439;-75
2021/06/16 06:53:29;;;;;;;9.15;7.90;;;;;;;16.78;67.41;100122.75;6247023;23;20004;-78
2021/06/16 06:56:00;;;;;;;10.43;8.38;;;;;;;16.82;67.83;100120.19;6251701;23;20028;-77
2021/06/16 06:58:26;;;;;;;15.32;10.20;;;;;;;16.94;67.21;100123.22;6223698;23;20457;-75
2021/06/16 07:00:52;;;;;;;14.38;10.45;;;;;;;17.05;66.99;100123.75;6249590;23;20032;-77
2021/06/16 07:03:18;;;;;;;9.13;8.30;;;;;;;17.21;66.69;100124.97;6251931;23;20437;-76
2021/06/16 07:05:43;;;;;;;17.50;10.57;;;;;;;17.31;66.56;100128.59;6214942;23;20503;-76
2021/06/16 07:08:09;;;;;;;8.68;7.40;;;;;;;17.42;66.20;100124.41;6249261;23;20004;-75
2021/06/16 07:10:34;;;;;;;4.93;4.53;;;;;;;17.64;66.01;100120.75;6224292;23;20035;-75
2021/06/16 07:13:00;;;;;;;5.30;4.95;;;;;;;17.91;65.50;100136.28;6248388;23;20008;-76
2021/06/16 07:15:25;;;;;;;6.13;5.60;;;;;;;18.08;65.33;100140.22;6246696;23;20012;-77
2021/06/16 07:17:51;;;;;;;4.93;4.63;;;;;;;18.28;64.62;100139.59;6194983;23;20008;-80
2021/06/16 07:20:16;;;;;;;7.93;7.22;;;;;;;18.43;64.11;100137.50;6219322;23;20012;-78
2021/06/16 07:22:43;;;;;;;7.30;6.70;;;;;;;18.57;64.10;100129.78;6244608;23;20020;-76
2021/06/16 07:25:13;;;;;;;15.00;9.95;;;;;;;18.73;63.50;100148.69;6246183;23;20083;-77
2021/06/16 07:27:39;;;;;;;4.65;4.35;;;;;;;18.91;63.46;100144.78;6243146;23;20079;-77
2021/06/16 07:30:06;;;;;;;5.78;4.85;;;;;;;19.17;62.85;100144.72;6241813;23;20011;-77
2021/06/16 07:32:32;;;;;;;16.02;10.07;;;;;;;19.26;62.02;100139.16;6219551;23;20451;-77
2021/06/16 07:34:59;;;;;;;6.07;5.55;;;;;;;19.42;62.60;100135.81;6218664;23;20003;-77
2021/06/16 07:37:25;;;;;;;3.30;2.97;;;;;;;19.67;62.15;100132.09;6245335;23;20015;-77
2021/06/16 07:39:50;;;;;;;4.57;4.35;;;;;;;19.87;61.64;100135.28;6244038;23;20004;-78
2021/06/16 07:42:16;;;;;;;4.70;3.92;;;;;;;20.04;61.63;100143.50;6245678;23;20008;-77
2021/06/16 07:44:41;;;;;;;18.85;10.60;;;;;;;20.12;60.07;100135.44;6216910;23;20453;-78
2021/06/16 07:47:07;;;;;;;10.55;9.48;;;;;;;20.03;59.95;100128.00;6246768;23;20004;-76
2021/06/16 07:49:33;;;;;;;5.45;5.10;;;;;;;20.05;59.90;100133.22;6245894;23;20079;-76
2021/06/16 07:51:58;;;;;;;4.45;4.15;;;;;;;20.23;59.92;100142.22;6191167;23;20071;-77
2021/06/16 07:54:24;;;;;;;5.18;4.78;;;;;;;20.36;59.98;100135.59;6247246;23;20027;-78
2021/06/16 07:56:49;;;;;;;3.35;3.15;;;;;;;20.51;59.74;100130.56;6246431;23;20011;-76
2021/06/16 07:59:15;;;;;;;3.95;3.63;;;;;;;20.63;59.44;100122.25;6218854;23;20063;-75
2021/06/16 08:01:42;;;;;;;5.10;4.65;;;;;;;20.74;58.74;100134.63;6193583;23;20012;-76
2021/06/16 08:04:08;;;;;;;8.13;7.32;;;;;;;20.75;58.46;100127.91;6218219;23;20013;-75
2021/06/16 08:06:33;;;;;;;6.93;6.35;;;;;;;20.84;58.32;100132.59;6244638;23;20182;-76
2021/06/16 08:08:59;;;;;;;7.63;6.93;;;;;;;20.87;58.36;100115.22;6243948;23;20352;-76
2021/06/16 08:11:24;;;;;;;13.90;10.32;;;;;;;21.02;58.20;100117.31;6248153;23;20025;-76
2021/06/16 08:13:51;;;;;;;10.10;9.20;;;;;;;21.16;56.90;100116.19;6247487;23;20004;-77
2021/06/16 08:16:18;;;;;;;6.28;5.88;;;;;;;21.30;57.23;100110.31;6246038;23;20004;-77
2021/06/16 08:18:45;;;;;;;4.88;4.47;;;;;;;21.50;56.81;100103.81;6249103;23;20004;-76
2021/06/16 08:21:10;;;;;;;9.38;7.90;;;;;;;21.74;55.91;100105.00;6236498;23;20015;-75
2021/06/16 08:23:36;;;;;;;12.93;10.35;;;;;;;21.78;55.17;100108.69;6222993;23;20091;-77
2021/06/16 08:26:02;;;;;;;5.63;5.22;;;;;;;21.78;55.51;100098.38;6245420;23;20012;-77
2021/06/16 08:28:28;;;;;;;7.88;7.15;;;;;;;21.85;55.28;100092.22;6222211;23;20062;-76
2021/06/16 08:30:54;;;;;;;5.13;3.83;;;;;;;21.90;55.33;100094.78;6246122;23;20103;-78
2021/06/16 08:33:19;;;;;;;7.93;7.03;;;;;;;22.09;54.87;100104.47;6193893;23;20050;-77
2021/06/16 08:35:45;;;;;;;5.20;4.75;;;;;;;22.26;54.78;100095.03;6221294;23;20011;-78
2021/06/16 08:38:11;;;;;;;4.15;3.95;;;;;;;22.31;54.31;100087.22;6243265;23;20354;-77
2021/06/16 08:40:36;;;;;;;5.55;4.30;;;;;;;22.44;54.67;100084.41;6246044;23;20079;-78
2021/06/16 08:43:02;;;;;;;8.43;7.68;;;;;;;22.43;53.34;100088.38;6246231;23;20007;-76
2021/06/16 08:45:34;;;;;;;5.18;4.68;;;;;;;22.44;53.92;100082.47;6246660;23;20403;-78
2021/06/16 08:48:00;;;;;;;4.32;3.92;;;;;;;22.35;53.93;100084.56;6247924;23;20004;-76
2021/06/16 08:50:25;;;;;;;10.75;9.70;;;;;;;22.23;53.42;100088.19;6220611;23;20011;-78
2021/06/16 08:52:51;;;;;;;11.23;8.00;;;;;;;22.17;53.36;100074.88;6242468;23;20398;-77
2021/06/16 08:55:19;;;;;;;17.13;9.60;;;;;;;22.12;53.52;100073.13;6243122;23;20008;-77
2021/06/16 08:57:45;;;;;;;10.70;8.40;;;;;;;22.09;53.49;100071.88;6245572;23;20004;-76
2021/06/16 09:00:12;;;;;;;6.25;5.75;;;;;;;22.09;53.54;100071.88;6216464;23;20040;-77
2021/06/16 09:02:37;;;;;;;5.30;4.80;;;;;;;22.26;54.00;100078.31;6218702;23;20369;-78
2021/06/16 09:05:03;;;;;;;7.97;6.93;;;;;;;22.33;52.75;100061.84;6213291;23;20036;-78
2021/06/16 09:07:33;;;;;;;2.95;2.75;;;;;;;22.40;53.29;100070.41;6217659;23;20087;-76
2021/06/16 09:10:18;;;;;;;5.03;4.63;;;;;;;22.52;53.02;100068.72;6216603;23;20004;-77
2021/06/16 09:12:49;;;;;;;;;;;;;;;22.55;52.27;100070.81;6214806;23;20031;-77
2021/06/16 09:15:20;;;;;;;11.32;9.55;;;;;;;22.16;53.06;100078.81;6212870;23;19918;-76
2021/06/16 09:17:58;;;;;;;11.02;8.93;;;;;;;22.08;53.88;100073.03;6218724;23;20008;-78
2021/06/16 09:20:24;;;;;;;12.00;8.32;;;;;;;22.20;54.23;100074.16;6218424;23;20001;-78
2021/06/16 09:23:26;;;;;;;9.43;8.50;;;;;;;22.42;53.58;100070.03;6216647;23;20340;-77
2021/06/16 09:26:20;;;;;;;8.73;7.82;;;;;;;22.51;53.56;100078.25;6218113;23;20005;-77
2021/06/16 09:28:49;;;;;;;6.63;5.82;;;;;;;22.40;53.79;100075.97;6216294;23;20001;-78
2021/06/16 09:31:16;;;;;;;4.93;4.65;;;;;;;22.40;53.28;100064.00;6217773;23;20015;-77
2021/06/16 09:33:42;;;;;;;6.22;5.75;;;;;;;22.44;53.43;100065.75;6214799;23;20053;-77
2021/06/16 09:36:10;;;;;;;9.30;8.02;;;;;;;22.49;53.23;100068.25;6216621;23;20063;-78
2021/06/16 09:38:36;;;;;;;6.15;5.70;;;;;;;22.65;53.23;100067.50;6217456;23;20004;-77
2021/06/16 09:41:01;;;;;;;7.25;6.18;;;;;;;22.70;52.86;100061.66;6218156;23;20020;-77
2021/06/16 09:43:30;;;;;;;6.18;5.72;;;;;;;22.80;53.17;100052.75;6217357;23;20008;-78
2021/06/16 09:45:58;;;;;;;3.40;3.20;;;;;;;22.97;53.05;100046.03;6219848;23;20415;-77
2021/06/16 09:48:41;;;;;;;6.55;5.97;;;;;;;23.34;52.21;100047.75;6216482;23;20099;-78
2021/06/16 09:51:21;;;;;;;4.80;4.50;;;;;;;23.47;51.80;100052.03;6218741;23;20024;-79
2021/06/16 09:54:18;;;;;;;5.95;5.55;;;;;;;23.53;51.26;100056.16;6217830;23;20000;-79
2021/06/16 09:56:51;;;;;;;5.75;5.30;;;;;;;23.38;51.60;100061.78;6195683;23;20396;-76
2021/06/16 09:59:38;;;;;;;5.70;5.30;;;;;;;23.18;51.60;100054.16;6222144;23;20078;-78
2021/06/16 10:02:04;;;;;;;6.57;6.15;;;;;;;22.79;52.69;100053.13;6222924;23;20299;-78
2021/06/16 10:04:44;;;;;;;5.80;5.40;;;;;;;22.72;52.39;100044.56;6229474;23;20004;-78
2021/06/16 10:07:21;;;;;;;4.40;4.00;;;;;;;22.81;52.14;100032.09;6240725;23;20082;-78
2021/06/16 10:10:03;;;;;;;3.88;3.72;;;;;;;23.16;52.51;100041.75;6250683;23;20000;-79
2021/06/16 10:12:31;;;;;;;7.25;5.03;;;;;;;23.52;51.77;100045.38;6250699;23;20031;-78
2021/06/16 10:14:57;;;;;;;3.50;3.20;;;;;;;23.85;51.99;100039.34;6239853;23;20024;-77
2021/06/16 10:17:23;;;;;;;5.03;4.55;;;;;;;24.20;49.07;100044.09;6184000;23;20012;-78
2021/06/16 10:19:50;;;;;;;3.83;3.63;;;;;;;24.34;49.05;100031.56;6247531;23;20031;-78
2021/06/16 10:22:16;;;;;;;3.55;3.35;;;;;;;24.37;49.49;100026.06;6227020;23;20312;-78
2021/06/16 10:24:42;;;;;;;2.40;2.30;;;;;;;24.33;48.67;100016.00;6227479;23;20083;-79
2021/06/16 10:27:14;;;;;;;2.05;1.95;;;;;;;24.50;49.28;100023.94;6252859;23;20506;-78
2021/06/16 10:29:43;;;;;;;2.78;2.65;;;;;;;24.81;48.50;100018.47;6226234;23;19996;-79
2021/06/16 10:32:11;;;;;;;2.83;2.60;;;;;;;25.12;47.05;100025.03;6254497;23;20031;-78
2021/06/16 10:34:57;;;;;;;2.75;2.55;;;;;;;25.30;46.45;100016.91;6254147;23;20407;-79
2021/06/16 10:37:25;;;;;;;3.85;3.22;;;;;;;25.29;46.58;100024.50;6250230;23;20059;-79
2021/06/16 10:40:19;;;;;;;3.03;2.05;;;;;;;25.50;47.11;100024.03;6256726;23;20004;-79
2021/06/16 10:43:03;;;;;;;3.80;2.38;;;;;;;26.09;46.52;100018.03;6257819;23;20411;-79
2021/06/16 10:45:55;;;;;;;3.08;2.90;;;;;;;26.70;42.48;100015.91;6257495;23;20008;-78
2021/06/16 10:48:40;;;;;;;5.45;1.42;;;;;;;27.03;43.21;100010.56;6241076;23;20074;-78
2021/06/16 10:51:10;;;;;;;1.77;1.67;;;;;;;27.69;43.01;99997.41;6253964;23;20011;-78
2021/06/16 10:54:14;;;;;;;2.67;2.47;;;;;;;28.39;41.11;100000.09;6223179;23;20015;-79
2021/06/16 10:56:47;;;;;;;2.65;2.55;;;;;;;28.93;39.29;100009.81;6264798;23;20016;-80
2021/06/16 10:59:13;;;;;;;4.88;1.45;;;;;;;29.46;38.72;99999.75;6267436;23;20027;-80
2021/06/16 11:01:50;;;;;;;1.58;1.48;;;;;;;30.19;38.51;99998.31;6268343;23;19988;-78
2021/06/16 11:04:45;;;;;;;1.00;1.00;;;;;;;31.63;38.63;99992.34;6270813;22;20023;-78
2021/06/16 11:07:29;;;;;;;1.00;1.00;;;;;;;33.15;33.29;99990.16;6213784;22;20000;-80
2021/06/16 11:09:57;;;;;;;0.90;0.87;;;;;;;34.33;33.09;99991.91;6261482;22;20004;-78
2021/06/16 11:12:33;;;;;;;0.90;0.90;;;;;;;35.40;31.41;99987.69;6253683;23;20031;-77
2021/06/16 11:15:00;;;;;;;0.80;0.80;;;;;;;35.65;29.79;100001.97;6231716;23;20085;-79
2021/06/16 11:17:26;;;;;;;1.10;0.70;;;;;;;35.95;30.19;99994.25;6221712;23;20008;-77
2021/06/16 11:20:03;;;;;;;0.47;0.47;;;;;;;35.77;28.62;99996.78;6247390;23;20008;-77
2021/06/16 11:22:29;;;;;;;0.40;0.40;;;;;;;35.24;28.32;99997.78;6239030;23;20511;-77
2021/06/16 11:25:09;;;;;;;0.60;0.55;;;;;;;34.88;28.68;100004.41;6215565;23;20007;-78
2021/06/16 11:27:56;;;;;;;0.85;0.65;;;;;;;34.60;28.18;99994.53;6223654;23;20011;-76
2021/06/16 11:30:47;;;;;;;0.60;0.50;;;;;;;33.90;28.84;99994.44;6249363;23;20011;-78
2021/06/16 11:33:12;;;;;;;0.70;0.70;;;;;;;33.64;28.15;99987.66;6250439;23;20004;-78
2021/06/16 11:36:01;;;;;;;1.25;0.80;;;;;;;33.33;29.08;99985.00;6249613;23;20015;-76
2021/06/16 11:38:58;;;;;;;0.65;0.65;;;;;;;33.05;29.32;99980.66;6249775;23;20042;-77
2021/06/16 11:41:28;;;;;;;0.52;0.52;;;;;;;32.56;30.00;99971.72;6239423;23;20511;-78
2021/06/16 11:43:57;;;;;;;0.40;0.40;;;;;;;32.99;30.25;99982.38;6223921;23;20122;-78
2021/06/16 11:46:30;;;;;;;0.60;0.60;;;;;;;33.38;29.91;99981.69;6252320;23;20000;-77
2021/06/16 11:49:24;;;;;;;0.38;0.38;;;;;;;33.45;29.64;99975.06;6249833;23;20464;-77